Terminal Aerodrome Forecast
Issued by NWS Jackson, MS

Home | Current Version | Previous Version | Text Only | Print | Product List | Glossary On
Versions: 1 2 3 4 5 6 7 8 9 10 11 12 13
000
FTUS44 KJAN 302320
TAFMEI
TAF
KMEI 302320Z 3100/3124 VRB04KT P6SM FEW050 BKN250
     FM310400 00000KT 6SM BR BKN250
     FM311400 VRB03KT P6SM SCT050 BKN250=

USA.gov is the U.S. government's official web portal to all federal, state and local government web resources and services.